Wollogorang, Australia
Current Conditions -  °F | °C
As of 12:00 AM on Friday 19 Dec 2014 (Local Time) from YGTE Reporting Station
Clear Clear  
Wind Chill: 84°   Ceiling: Unl
Heat Index: 96°   Visibility: 6mi
Dew Point: 79°   Wind: 6mph
Humidity: 84%   Direction: 50°NE
Pressure: 29.8"   Gusts: NA
Location:  17.2°S, 137.93°E
Report Text: YGTE 181500Z AUTO 05005KT 9999 // NCD 29/26 Q1009
Loading
Personal Weather Stations






























Interactive Weather Map New forecast layout! Learn more

10-Day Weather Forecast

Advertisements
Track Severe Weather on mobile